createdAt,value
2023-01-10T00:00:01.607Z,102857.17
2023-01-10T00:01:08.372Z,102869.48
2023-01-10T00:02:11.341Z,102862.48
2023-01-10T00:03:14.365Z,102854.55
2023-01-10T00:04:17.340Z,102864.23
2023-01-10T00:05:20.450Z,102858.07
2023-01-10T00:06:23.495Z,102855.48
2023-01-10T00:07:26.431Z,102856.33
2023-01-10T00:08:29.373Z,102864.31
2023-01-10T00:09:32.529Z,102861.70
2023-01-10T00:10:35.647Z,102867.01
2023-01-10T00:11:57.051Z,102865.27
2023-01-10T00:13:18.534Z,102865.27
2023-01-10T00:14:21.529Z,102867.91
2023-01-10T00:15:24.481Z,102866.20
2023-01-10T00:16:27.553Z,102867.97
2023-01-10T00:17:30.500Z,102868.86
2023-01-10T00:18:33.506Z,102862.70
2023-01-10T00:19:36.657Z,102860.09
2023-01-10T00:20:39.602Z,102861.05
2023-01-10T00:21:42.681Z,102861.94
2023-01-10T00:22:45.753Z,102865.48
2023-01-10T00:23:48.826Z,102862.84
2023-01-10T00:24:52.063Z,102862.86
2023-01-10T00:25:55.120Z,102858.52
2023-01-10T00:26:58.873Z,102855.89
2023-01-10T00:28:12.951Z,102852.41
2023-01-10T00:29:17.989Z,102848.02
2023-01-10T00:30:21.292Z,102853.30
2023-01-10T00:31:24.337Z,102863.00
2023-01-10T00:32:27.489Z,102858.59
2023-01-10T00:33:33.785Z,102856.87
2023-01-10T00:34:37.007Z,102854.23
2023-01-10T00:35:40.067Z,102855.12
2023-01-10T00:36:44.922Z,102852.48
2023-01-10T00:37:48.205Z,102855.12
2023-01-10T00:38:51.350Z,102855.12
2023-01-10T00:39:54.413Z,102851.64
2023-01-10T00:40:57.586Z,102860.41
2023-01-10T00:42:19.036Z,102859.52
2023-01-10T00:43:40.362Z,102860.41
2023-01-10T00:44:45.367Z,102854.28
2023-01-10T00:45:48.736Z,102858.69
2023-01-10T00:46:52.830Z,102858.72
2023-01-10T00:47:55.952Z,102857.01
2023-01-10T00:48:58.985Z,102855.23
2023-01-10T00:50:03.816Z,102851.66
2023-01-10T00:51:07.063Z,102851.66
2023-01-10T00:52:10.175Z,102844.61
2023-01-10T00:53:13.220Z,102856.05
2023-01-10T00:54:16.167Z,102854.30
2023-01-10T00:55:19.333Z,102854.30
2023-01-10T00:56:22.317Z,102852.59
2023-01-10T00:57:25.267Z,102854.30
2023-01-10T00:58:28.416Z,102857.82
2023-01-10T00:59:31.359Z,102863.98
2023-01-10T01:00:34.281Z,102856.92
2023-01-10T01:01:37.437Z,102859.56
2023-01-10T01:02:40.410Z,102862.19
2023-01-10T01:03:43.427Z,102863.95
2023-01-10T01:04:46.365Z,102865.70
2023-01-10T01:05:49.400Z,102868.34
2023-01-10T01:06:52.348Z,102866.57
2023-01-10T01:07:55.392Z,102863.00
2023-01-10T01:08:58.441Z,102870.98
2023-01-10T01:10:19.972Z,102877.14
2023-01-10T01:11:23.059Z,102878.02
2023-01-10T01:12:26.200Z,102884.20
2023-01-10T01:13:29.282Z,102878.91
2023-01-10T01:14:32.313Z,102877.16
2023-01-10T01:15:35.702Z,102874.52
2023-01-10T01:16:38.885Z,102879.80
2023-01-10T01:17:42.052Z,102875.39
2023-01-10T01:18:45.099Z,102869.23
2023-01-10T01:19:48.050Z,102873.65
2023-01-10T01:20:56.321Z,102877.19
2023-01-10T01:21:59.299Z,102880.70
2023-01-10T01:23:02.256Z,102881.59
2023-01-10T01:24:05.504Z,102879.83
2023-01-10T01:25:09.204Z,102878.95
2023-01-10T01:26:12.331Z,102881.59
2023-01-10T01:27:15.409Z,102879.83
2023-01-10T01:28:18.341Z,102878.95
2023-01-10T01:29:21.537Z,102884.22
2023-01-10T01:30:24.634Z,102885.09
2023-01-10T01:31:27.617Z,102885.11
2023-01-10T01:32:31.098Z,102878.95
2023-01-10T01:33:34.455Z,102885.14
2023-01-10T01:34:37.728Z,102878.14
2023-01-10T01:35:46.015Z,102875.52
2023-01-10T01:36:50.949Z,102876.42
2023-01-10T01:37:53.854Z,102868.52
2023-01-10T01:38:56.718Z,102876.50
2023-01-10T01:39:59.715Z,102870.37
2023-01-10T01:41:02.761Z,102876.57
2023-01-10T01:42:06.085Z,102873.98
2023-01-10T01:43:24.394Z,102872.24
2023-01-10T01:44:37.095Z,102874.91
2023-01-10T01:45:40.434Z,102867.00
2023-01-10T01:46:47.021Z,102886.37
2023-01-10T01:48:02.336Z,102874.09
2023-01-10T01:49:07.677Z,102875.80
2023-01-10T01:50:20.334Z,102884.66
2023-01-10T01:51:26.690Z,102877.65
2023-01-10T01:52:34.111Z,102882.95
2023-01-10T01:53:40.771Z,102897.09
2023-01-10T01:54:43.763Z,102891.81
2023-01-10T01:55:47.333Z,102900.57
2023-01-10T01:56:53.843Z,102895.29
2023-01-10T01:57:59.933Z,102890.86
2023-01-10T01:59:07.148Z,102894.37
2023-01-10T02:00:11.741Z,102896.12
2023-01-10T02:01:16.453Z,102888.14
2023-01-10T02:02:32.069Z,102897.80
2023-01-10T02:03:36.148Z,102879.30
2023-01-10T02:04:44.553Z,102878.40
2023-01-10T02:05:47.634Z,102870.50
2023-01-10T02:06:53.968Z,102872.24
2023-01-10T02:07:59.293Z,102875.76
2023-01-10T02:09:24.055Z,102872.22
2023-01-10T02:10:48.785Z,102866.06
2023-01-10T02:11:51.746Z,102871.34
2023-01-10T02:12:57.660Z,102888.97
2023-01-10T02:14:03.111Z,102889.86
2023-01-10T02:15:06.597Z,102889.86
2023-01-10T02:16:10.943Z,102887.22
2023-01-10T02:17:13.962Z,102886.34
2023-01-10T02:18:17.733Z,102888.11
2023-01-10T02:19:36.239Z,102884.58
2023-01-10T02:20:48.913Z,102890.73
2023-01-10T02:22:01.297Z,102899.53
2023-01-10T02:23:24.358Z,102893.35
2023-01-10T02:24:43.151Z,102893.35
2023-01-10T02:26:13.907Z,102898.64
2023-01-10T02:27:24.207Z,102889.78
2023-01-10T02:28:53.545Z,102890.71
2023-01-10T02:30:16.888Z,102892.50
2023-01-10T02:31:56.765Z,102891.70
2023-01-10T02:34:31.656Z,102903.05
2023-01-10T02:35:47.097Z,102903.31
2023-01-10T02:37:05.745Z,102896.28
2023-01-10T02:38:12.229Z,102899.85
2023-01-10T02:39:46.111Z,102904.19
2023-01-10T02:41:07.886Z,102902.42
2023-01-10T02:42:17.309Z,102898.01
2023-01-10T02:43:26.621Z,102905.93
2023-01-10T02:44:44.791Z,102905.06
2023-01-10T02:46:06.352Z,102909.45
2023-01-10T02:47:09.599Z,102902.42
2023-01-10T02:48:12.950Z,102905.06
2023-01-10T02:49:15.908Z,102904.19
2023-01-10T02:50:28.439Z,102899.77
2023-01-10T02:51:32.975Z,102901.52
2023-01-10T02:52:36.125Z,102913.83
2023-01-10T02:53:45.484Z,102915.58
2023-01-10T02:54:50.847Z,102910.30
2023-01-10T02:56:14.169Z,102913.75
2023-01-10T02:57:41.582Z,102915.50
2023-01-10T02:59:00.426Z,102912.84
2023-01-10T03:00:25.522Z,102915.48
2023-01-10T03:01:55.152Z,102919.00
2023-01-10T03:03:10.557Z,102919.02
2023-01-10T03:04:29.074Z,102926.06
2023-01-10T03:06:55.814Z,102921.41
2023-01-10T03:08:17.129Z,102927.81
2023-01-10T03:09:35.543Z,102921.58
2023-01-10T03:10:48.416Z,102922.43
2023-01-10T03:11:54.988Z,102922.43
2023-01-10T03:13:07.401Z,102926.82
2023-01-10T03:14:22.767Z,102922.41
2023-01-10T03:15:29.382Z,102925.92
2023-01-10T03:16:35.623Z,102925.92
2023-01-10T03:17:40.127Z,102925.05
2023-01-10T03:18:46.633Z,102932.98
2023-01-10T03:19:53.853Z,102937.39
2023-01-10T03:20:59.284Z,102932.98
2023-01-10T03:22:03.857Z,102932.05
2023-01-10T03:23:06.927Z,102932.05
2023-01-10T03:24:16.831Z,102936.44
2023-01-10T03:25:22.587Z,102934.64
2023-01-10T03:26:29.229Z,102931.98
2023-01-10T03:27:54.016Z,102932.86
2023-01-10T03:29:03.073Z,102930.16
2023-01-10T03:30:28.068Z,102931.91
2023-01-10T03:31:46.603Z,102926.62
2023-01-10T03:32:49.566Z,102921.36
2023-01-10T03:33:52.525Z,102925.83
2023-01-10T03:34:57.141Z,102921.44
2023-01-10T03:36:22.500Z,102920.64
2023-01-10T03:37:38.015Z,102918.02
2023-01-10T03:38:47.389Z,102911.02
2023-01-10T03:40:09.483Z,102913.71
2023-01-10T03:41:18.817Z,102919.00
2023-01-10T03:42:25.338Z,102906.69
2023-01-10T03:43:53.157Z,102922.53
2023-01-10T03:44:59.680Z,102912.84
2023-01-10T03:46:12.062Z,102916.38
2023-01-10T03:47:30.817Z,102920.78
2023-01-10T03:48:36.884Z,102924.32
2023-01-10T03:49:42.189Z,102918.16
2023-01-10T03:50:46.696Z,102928.73
2023-01-10T03:51:50.564Z,102924.34
2023-01-10T03:52:53.486Z,102931.37
2023-01-10T03:54:01.781Z,102925.17
2023-01-10T03:55:06.178Z,102924.28
2023-01-10T03:56:14.702Z,102917.19
2023-01-10T03:57:20.705Z,102918.06
2023-01-10T03:58:23.775Z,102913.66
2023-01-10T03:59:28.816Z,102910.14
2023-01-10T04:00:32.130Z,102914.53
2023-01-10T04:01:35.228Z,102922.47
2023-01-10T04:02:38.214Z,102919.89
2023-01-10T04:03:41.394Z,102919.89
2023-01-10T04:04:44.336Z,102913.71
2023-01-10T04:05:47.497Z,102913.71
2023-01-10T04:06:50.460Z,102908.43
2023-01-10T04:07:53.422Z,102918.13
2023-01-10T04:08:56.471Z,102919.00
2023-01-10T04:09:59.630Z,102911.07
2023-01-10T04:11:03.779Z,102917.25
2023-01-10T04:12:06.923Z,102919.02
2023-01-10T04:13:09.865Z,102920.78
2023-01-10T04:14:12.833Z,102917.27
2023-01-10T04:15:15.811Z,102923.42
2023-01-10T04:16:19.806Z,102918.14
2023-01-10T04:17:23.143Z,102914.63
2023-01-10T04:18:26.326Z,102913.75
2023-01-10T04:19:29.293Z,102913.78
2023-01-10T04:20:32.331Z,102917.34
2023-01-10T04:21:35.284Z,102918.24
2023-01-10T04:22:38.369Z,102918.22
2023-01-10T04:23:41.423Z,102912.94
2023-01-10T04:24:46.244Z,102915.58
2023-01-10T04:25:49.219Z,102901.50
2023-01-10T04:26:52.172Z,102906.78
2023-01-10T04:27:55.228Z,102902.38
2023-01-10T04:28:58.197Z,102903.27
2023-01-10T04:30:01.156Z,102907.67
2023-01-10T04:31:04.655Z,102907.67
2023-01-10T04:32:07.620Z,102912.09
2023-01-10T04:33:11.971Z,102911.21
2023-01-10T04:34:15.218Z,102915.63
2023-01-10T04:35:18.100Z,102915.63
2023-01-10T04:36:21.180Z,102911.21
2023-01-10T04:37:24.120Z,102912.96
2023-01-10T04:38:27.059Z,102915.63
2023-01-10T04:39:30.002Z,102920.86
2023-01-10T04:40:32.943Z,102917.29
2023-01-10T04:41:36.127Z,102918.14
2023-01-10T04:42:39.071Z,102918.14
2023-01-10T04:43:42.009Z,102918.13
2023-01-10T04:44:44.922Z,102924.22
2023-01-10T04:45:47.837Z,102918.91
2023-01-10T04:46:50.744Z,102918.91
2023-01-10T04:47:55.600Z,102910.09
2023-01-10T04:48:58.939Z,102915.38
2023-01-10T04:50:02.119Z,102921.53
2023-01-10T04:51:05.260Z,102925.92
2023-01-10T04:52:08.298Z,102924.99
2023-01-10T04:53:11.327Z,102924.13
2023-01-10T04:54:14.285Z,102925.87
2023-01-10T04:55:17.334Z,102928.51
2023-01-10T04:56:21.770Z,102932.02
2023-01-10T04:57:24.809Z,102930.28
2023-01-10T04:58:27.722Z,102930.34
2023-01-10T04:59:30.779Z,102929.41
2023-01-10T05:00:33.913Z,102928.56
2023-01-10T05:01:38.557Z,102930.34
2023-01-10T05:02:44.771Z,102934.69
2023-01-10T05:03:49.211Z,102940.83
2023-01-10T05:04:52.294Z,102932.02
2023-01-10T05:05:58.001Z,102942.57
2023-01-10T05:07:00.982Z,102943.42
2023-01-10T05:08:04.290Z,102939.85
2023-01-10T05:09:09.378Z,102940.78
2023-01-10T05:10:12.658Z,102945.14
2023-01-10T05:11:15.585Z,102944.23
2023-01-10T05:12:18.500Z,102944.23
2023-01-10T05:13:21.644Z,102946.88
2023-01-10T05:14:24.668Z,102948.63
2023-01-10T05:15:27.696Z,102953.04
2023-01-10T05:16:30.891Z,102959.20
2023-01-10T05:17:34.001Z,102964.48
2023-01-10T05:18:37.031Z,102964.41
2023-01-10T05:19:39.944Z,102963.56
2023-01-10T05:20:42.976Z,102965.28
2023-01-10T05:21:45.926Z,102971.41
2023-01-10T05:22:49.142Z,102968.75
2023-01-10T05:23:52.072Z,102967.88
2023-01-10T05:24:55.032Z,102965.21
2023-01-10T05:25:58.066Z,102964.34
2023-01-10T05:27:01.228Z,102964.34
2023-01-10T05:28:04.506Z,102956.36
2023-01-10T05:29:10.873Z,102962.52
2023-01-10T05:30:14.349Z,102964.27
2023-01-10T05:31:19.238Z,102973.94
2023-01-10T05:32:22.360Z,102980.09
2023-01-10T05:33:25.415Z,102971.30
2023-01-10T05:34:28.492Z,102967.75
2023-01-10T05:35:31.467Z,102973.91
2023-01-10T05:36:34.412Z,102976.55
2023-01-10T05:37:38.152Z,102978.27
2023-01-10T05:38:41.250Z,102978.25
2023-01-10T05:39:44.191Z,102980.87
2023-01-10T05:40:47.333Z,102979.08
2023-01-10T05:41:50.391Z,102979.89
2023-01-10T05:42:53.533Z,102982.52
2023-01-10T05:43:56.472Z,102976.36
2023-01-10T05:44:59.432Z,102987.78
2023-01-10T05:46:02.473Z,102978.02
2023-01-10T05:47:05.453Z,102983.27
2023-01-10T05:48:08.550Z,102975.25
2023-01-10T05:49:11.544Z,102978.77
2023-01-10T05:50:14.962Z,102974.33
2023-01-10T05:51:18.000Z,102976.02
2023-01-10T05:52:21.232Z,102976.89
2023-01-10T05:53:24.192Z,102976.88
2023-01-10T05:54:29.006Z,102981.27
2023-01-10T05:55:32.229Z,102979.44
2023-01-10T05:56:35.143Z,102975.87
2023-01-10T05:57:38.174Z,102975.84
2023-01-10T05:58:41.278Z,102985.48
2023-01-10T05:59:44.511Z,102981.95
2023-01-10T06:00:47.789Z,102988.09
2023-01-10T06:01:50.864Z,102985.36
2023-01-10T06:02:57.130Z,102987.11
2023-01-10T06:04:00.426Z,102987.95
2023-01-10T06:05:03.635Z,102999.35
2023-01-10T06:06:07.015Z,102999.33
2023-01-10T06:07:10.052Z,103003.69
2023-01-10T06:08:13.105Z,103002.81
2023-01-10T06:09:16.189Z,103000.12
2023-01-10T06:10:19.155Z,102997.47
2023-01-10T06:11:24.538Z,103001.86
2023-01-10T06:12:27.672Z,102996.52
2023-01-10T06:13:30.709Z,103004.38
2023-01-10T06:14:33.642Z,103001.70
2023-01-10T06:15:36.791Z,102996.39
2023-01-10T06:16:41.261Z,102998.98
2023-01-10T06:17:45.012Z,103005.20
2023-01-10T06:18:48.050Z,103007.84
2023-01-10T06:19:51.755Z,103012.26
2023-01-10T06:21:12.709Z,103002.58
2023-01-10T06:22:15.815Z,103006.97
2023-01-10T06:23:18.875Z,103013.13
2023-01-10T06:24:21.948Z,103013.97
2023-01-10T06:25:25.045Z,103015.78
2023-01-10T06:26:28.099Z,103013.13
2023-01-10T06:27:31.016Z,103021.06
2023-01-10T06:28:34.028Z,103028.05
2023-01-10T06:29:37.009Z,103019.22
2023-01-10T06:30:42.633Z,103025.38
2023-01-10T06:31:45.722Z,103018.26
2023-01-10T06:32:48.763Z,103025.30
2023-01-10T06:33:51.784Z,103028.79
2023-01-10T06:34:54.896Z,103037.58
2023-01-10T06:35:57.889Z,103032.22
2023-01-10T06:37:01.207Z,103040.16
2023-01-10T06:38:04.550Z,103034.88
2023-01-10T06:39:07.667Z,103044.55
2023-01-10T06:40:11.598Z,103048.97
2023-01-10T06:41:14.917Z,103046.33
2023-01-10T06:42:17.888Z,103048.09
2023-01-10T06:43:20.941Z,103056.85
2023-01-10T06:44:23.890Z,103046.27
2023-01-10T06:45:26.819Z,103055.08
2023-01-10T06:46:29.783Z,103048.91
2023-01-10T06:47:33.024Z,103052.44
2023-01-10T06:48:36.860Z,103045.38
2023-01-10T06:49:39.982Z,103063.89
2023-01-10T06:50:43.320Z,103053.31
2023-01-10T06:51:46.433Z,103063.89
2023-01-10T06:53:00.137Z,103047.95
2023-01-10T06:54:03.092Z,103056.77
2023-01-10T06:55:06.711Z,103057.62
2023-01-10T06:56:10.365Z,103060.27
2023-01-10T06:57:13.413Z,103069.08
2023-01-10T06:58:17.882Z,103069.12
2023-01-10T06:59:21.047Z,103069.12
2023-01-10T07:00:25.551Z,103066.48
2023-01-10T07:01:28.545Z,103069.09
2023-01-10T07:02:31.663Z,103068.20
2023-01-10T07:03:34.840Z,103064.59
2023-01-10T07:04:37.789Z,103064.58
2023-01-10T07:05:40.851Z,103054.84
2023-01-10T07:06:44.044Z,103061.91
2023-01-10T07:07:46.985Z,103064.46
2023-01-10T07:08:49.926Z,103060.92
2023-01-10T07:09:53.092Z,103070.52
2023-01-10T07:10:57.750Z,103070.52
2023-01-10T07:12:00.697Z,103060.80
2023-01-10T07:13:03.819Z,103069.59
2023-01-10T07:14:06.882Z,103059.01
2023-01-10T07:15:10.520Z,103063.41
2023-01-10T07:16:15.703Z,103066.05
2023-01-10T07:17:18.966Z,103073.98
2023-01-10T07:18:22.157Z,103067.82
2023-01-10T07:19:25.274Z,103065.20
2023-01-10T07:20:28.807Z,103069.68
2023-01-10T07:21:31.841Z,103064.41
2023-01-10T07:22:35.048Z,103069.68
2023-01-10T07:23:38.554Z,103067.88
2023-01-10T07:24:41.596Z,103068.75
2023-01-10T07:25:44.600Z,103067.84
2023-01-10T07:26:47.771Z,103067.84
2023-01-10T07:27:50.861Z,103074.89
2023-01-10T07:28:53.778Z,103066.95
2023-01-10T07:29:56.749Z,103070.47
2023-01-10T07:31:01.418Z,103063.41
2023-01-10T07:32:05.186Z,103064.28
2023-01-10T07:33:08.240Z,103066.05
2023-01-10T07:34:11.740Z,103066.05
2023-01-10T07:35:14.715Z,103075.77
2023-01-10T07:36:18.202Z,103066.95
2023-01-10T07:37:21.195Z,103064.30
2023-01-10T07:38:24.211Z,103085.45
2023-01-10T07:39:27.307Z,103079.20
2023-01-10T07:40:30.451Z,103086.24
2023-01-10T07:41:33.600Z,103083.59
2023-01-10T07:42:38.454Z,103087.11
2023-01-10T07:43:41.379Z,103079.17
2023-01-10T07:44:44.545Z,103085.37
2023-01-10T07:45:47.516Z,103079.20
2023-01-10T07:46:50.542Z,103084.49
2023-01-10T07:48:00.939Z,103087.20
2023-01-10T07:49:04.001Z,103091.62
2023-01-10T07:50:08.073Z,103101.34
2023-01-10T07:51:11.092Z,103096.06
2023-01-10T07:52:14.033Z,103095.22
2023-01-10T07:53:17.195Z,103108.45
2023-01-10T07:54:20.386Z,103092.57
2023-01-10T07:55:23.234Z,103094.34
2023-01-10T07:56:26.216Z,103094.31
2023-01-10T07:57:29.244Z,103088.13
2023-01-10T07:58:32.752Z,103085.48
2023-01-10T07:59:35.935Z,103081.08
2023-01-10T08:00:38.945Z,103080.19
2023-01-10T08:01:41.985Z,103082.80
2023-01-10T08:02:45.902Z,103074.80
2023-01-10T08:03:49.176Z,103075.66
2023-01-10T08:04:52.141Z,103077.37
2023-01-10T08:06:00.570Z,103080.84
2023-01-10T08:07:04.424Z,103079.91
2023-01-10T08:08:09.324Z,103086.02
2023-01-10T08:09:12.400Z,103079.80
2023-01-10T08:10:15.667Z,103083.29
2023-01-10T08:11:18.907Z,103085.00
2023-01-10T08:12:23.995Z,103084.95
2023-01-10T08:13:27.073Z,103079.56
2023-01-10T08:14:30.240Z,103081.28
2023-01-10T08:15:33.135Z,103079.48
2023-01-10T08:16:36.195Z,103079.39
2023-01-10T08:17:39.146Z,103078.50
2023-01-10T08:18:42.728Z,103072.30
2023-01-10T08:19:46.105Z,103074.02
2023-01-10T08:20:50.795Z,103084.61
2023-01-10T08:21:55.058Z,103072.30
2023-01-10T08:22:59.067Z,103070.55
2023-01-10T08:24:02.121Z,103071.42
2023-01-10T08:25:05.308Z,103071.42
2023-01-10T08:26:08.497Z,103081.95
2023-01-10T08:27:11.699Z,103079.30
2023-01-10T08:28:14.869Z,103068.78
2023-01-10T08:29:18.241Z,103069.65
2023-01-10T08:30:21.335Z,103081.95
2023-01-10T08:31:24.698Z,103069.56
2023-01-10T08:32:27.714Z,103070.41
2023-01-10T08:33:30.814Z,103072.12
2023-01-10T08:34:33.854Z,103059.72
2023-01-10T08:35:39.597Z,103069.41
2023-01-10T08:36:42.979Z,103070.25
2023-01-10T08:37:46.013Z,103068.42
2023-01-10T08:38:50.498Z,103066.61
2023-01-10T08:39:53.627Z,103073.59
2023-01-10T08:40:57.900Z,103074.41
2023-01-10T08:42:01.423Z,103076.16
2023-01-10T08:43:07.516Z,103069.11
2023-01-10T08:44:12.600Z,103065.59
2023-01-10T08:45:15.773Z,103063.81
2023-01-10T08:46:19.899Z,103062.85
2023-01-10T08:47:23.103Z,103060.20
2023-01-10T08:48:26.056Z,103064.56
2023-01-10T08:49:29.164Z,103058.36
2023-01-10T08:50:32.658Z,103058.30
2023-01-10T08:51:35.829Z,103064.47
2023-01-10T08:52:39.252Z,103059.14
2023-01-10T08:53:42.516Z,103057.37
2023-01-10T08:54:45.700Z,103061.77
2023-01-10T08:55:49.314Z,103047.64
2023-01-10T08:56:52.633Z,103062.57
2023-01-10T08:57:59.283Z,103051.94
2023-01-10T08:59:02.505Z,103060.77
2023-01-10T09:00:06.651Z,103058.11
2023-01-10T09:01:11.501Z,103058.11
2023-01-10T09:02:14.716Z,103068.74
2023-01-10T09:03:18.675Z,103068.74
2023-01-10T09:04:21.765Z,103070.61
2023-01-10T09:05:28.256Z,103070.61
2023-01-10T09:06:30.726Z,103068.87
2023-01-10T09:07:33.809Z,103064.44
2023-01-10T09:08:37.362Z,103064.41
2023-01-10T09:09:40.536Z,103064.31
2023-01-10T09:10:43.620Z,103053.66
2023-01-10T09:11:46.628Z,103050.04
2023-01-10T09:12:56.312Z,103049.10
2023-01-10T09:13:59.366Z,103050.75
2023-01-10T09:15:02.398Z,103041.90
2023-01-10T09:16:05.699Z,103040.13
2023-01-10T09:17:08.609Z,103039.25
2023-01-10T09:18:13.829Z,103042.83
2023-01-10T09:19:17.135Z,103037.59
2023-01-10T09:20:20.428Z,103042.93
2023-01-10T09:21:23.507Z,103044.70
2023-01-10T09:22:26.840Z,103042.90
2023-01-10T09:23:29.895Z,103052.56
2023-01-10T09:24:32.917Z,103055.19
2023-01-10T09:25:36.283Z,103053.31
2023-01-10T09:26:39.429Z,103055.05
2023-01-10T09:27:42.525Z,103065.66
2023-01-10T09:28:47.420Z,103055.92
2023-01-10T09:29:50.133Z,103058.61
2023-01-10T09:30:53.196Z,103053.31
2023-01-10T09:31:56.196Z,103052.41
2023-01-10T09:32:59.467Z,103056.83
2023-01-10T09:34:02.530Z,103062.98
2023-01-10T09:37:37.372Z,103055.89
2023-01-10T09:38:40.326Z,103054.25
2023-01-10T09:39:43.471Z,103058.61
2023-01-10T09:41:20.051Z,103061.23
2023-01-10T09:42:56.559Z,103053.24
2023-01-10T09:44:05.931Z,103052.24
2023-01-10T09:45:18.668Z,103051.34
2023-01-10T09:46:40.542Z,103066.27
2023-01-10T09:48:04.922Z,103053.83
2023-01-10T09:49:31.396Z,103056.38
2023-01-10T09:50:56.078Z,103058.90
2023-01-10T09:52:00.300Z,103059.73
2023-01-10T09:53:15.937Z,103048.13
2023-01-10T09:54:31.658Z,103050.74
2023-01-10T09:55:37.739Z,103050.67
2023-01-10T09:56:41.421Z,103048.80
2023-01-10T09:57:45.090Z,103042.58
2023-01-10T09:58:49.441Z,103053.09
2023-01-10T09:59:54.005Z,103053.97
2023-01-10T10:01:00.030Z,103057.45
2023-01-10T10:02:24.937Z,103056.48
2023-01-10T10:03:46.959Z,103052.92
2023-01-10T10:06:11.942Z,103057.88
2023-01-10T10:07:14.622Z,103052.89
2023-01-10T10:08:19.667Z,103058.20
2023-01-10T10:09:29.399Z,103048.39
2023-01-10T10:10:41.895Z,103051.88
2023-01-10T10:12:03.695Z,103045.66
2023-01-10T10:13:28.188Z,103046.54
2023-01-10T10:14:33.512Z,103041.13
2023-01-10T10:15:43.214Z,103039.31
2023-01-10T10:16:55.499Z,103041.05
2023-01-10T10:18:18.740Z,103030.37
2023-01-10T10:19:37.209Z,103036.48
2023-01-10T10:20:53.066Z,103032.92
2023-01-10T10:22:14.534Z,103033.72
2023-01-10T10:23:36.028Z,103025.72
2023-01-10T10:25:01.868Z,103034.56
2023-01-10T10:26:14.198Z,103034.56
2023-01-10T10:27:26.390Z,103036.30
2023-01-10T10:29:05.735Z,103028.34
2023-01-10T10:30:15.176Z,103027.41
2023-01-10T10:31:41.591Z,103029.11
2023-01-10T10:33:03.079Z,103017.55
2023-01-10T10:34:18.371Z,103022.78
2023-01-10T10:35:24.943Z,103016.56
2023-01-10T10:38:00.889Z,103010.05
2023-01-10T10:39:05.486Z,103008.64
2023-01-10T10:40:18.362Z,103004.31
2023-01-10T10:41:31.146Z,103001.70
2023-01-10T10:42:37.698Z,103012.35
2023-01-10T10:43:41.237Z,103009.70
2023-01-10T10:44:53.604Z,103006.23
2023-01-10T10:46:15.256Z,103004.45
2023-01-10T10:47:20.939Z,103006.23
2023-01-10T10:48:27.231Z,103000.10
2023-01-10T10:49:33.764Z,102993.95
2023-01-10T10:50:40.616Z,102995.70
2023-01-10T10:51:52.739Z,103002.75
2023-01-10T10:52:55.986Z,103001.84
2023-01-10T10:53:59.242Z,103003.59
2023-01-10T10:55:05.307Z,103007.05
2023-01-10T10:56:12.166Z,103010.64
2023-01-10T10:57:15.568Z,103000.94
2023-01-10T10:58:18.786Z,103011.55
2023-01-10T10:59:21.956Z,103006.23
2023-01-10T11:00:26.772Z,103000.97
2023-01-10T11:01:30.160Z,103005.38
2023-01-10T11:02:42.432Z,103010.71
2023-01-10T11:03:57.629Z,103008.06
2023-01-10T11:05:06.808Z,103011.62
2023-01-10T11:06:10.689Z,103012.53
2023-01-10T11:07:17.286Z,103021.44
2023-01-10T11:08:22.406Z,103024.09
2023-01-10T11:09:29.505Z,103018.71
2023-01-10T11:10:36.303Z,103011.62
2023-01-10T11:11:46.790Z,103005.38
2023-01-10T11:12:52.444Z,103013.22
2023-01-10T11:13:58.249Z,103001.70
2023-01-10T11:15:01.414Z,103015.88
2023-01-10T11:16:06.345Z,103013.30
2023-01-10T11:17:19.077Z,103015.95
2023-01-10T11:18:25.109Z,103024.75
2023-01-10T11:19:29.677Z,103006.13
2023-01-10T11:20:34.465Z,103007.91
2023-01-10T11:21:40.340Z,103012.31
2023-01-10T11:22:48.932Z,103014.09
2023-01-10T11:23:57.317Z,103013.30
2023-01-10T11:25:02.160Z,103014.20
2023-01-10T11:26:08.110Z,103008.97
2023-01-10T11:27:17.704Z,103019.66
2023-01-10T11:28:24.237Z,103015.29
2023-01-10T11:29:45.604Z,103018.86
2023-01-10T11:30:50.393Z,103013.58
2023-01-10T11:31:56.259Z,103017.22
2023-01-10T11:33:05.836Z,103013.72
2023-01-10T11:34:27.701Z,103014.70
2023-01-10T11:35:40.894Z,103016.55
2023-01-10T11:36:56.660Z,103018.41
2023-01-10T11:38:21.500Z,103018.48
2023-01-10T11:39:25.141Z,103013.27
2023-01-10T11:40:37.359Z,103014.28
2023-01-10T11:41:40.663Z,103014.32
2023-01-10T11:42:44.287Z,103008.14
2023-01-10T11:43:47.276Z,103016.94
2023-01-10T11:44:50.540Z,103022.24
2023-01-10T11:46:01.790Z,103020.39
2023-01-10T11:47:08.434Z,103020.46
2023-01-10T11:48:47.980Z,103018.65
2023-01-10T11:49:40.877Z,103019.52
2023-01-10T11:50:47.810Z,103023.05
2023-01-10T11:51:54.275Z,103016.87
2023-01-10T11:52:57.774Z,103019.52
2023-01-10T11:54:03.242Z,103025.80
2023-01-10T11:55:07.735Z,103024.09
2023-01-10T11:56:14.856Z,103026.81
2023-01-10T11:57:24.563Z,103031.23
2023-01-10T11:58:32.815Z,103020.67
2023-01-10T11:59:37.814Z,103017.14
2023-01-10T12:00:47.592Z,103023.36
2023-01-10T12:02:04.440Z,103019.83
2023-01-10T12:03:29.335Z,103020.73
2023-01-10T12:04:36.880Z,103026.98
2023-01-10T12:05:40.239Z,103019.93
2023-01-10T12:06:45.606Z,103025.27
2023-01-10T12:08:08.345Z,103024.39
2023-01-10T12:09:34.821Z,103027.05
2023-01-10T12:10:38.005Z,103032.38
2023-01-10T12:11:41.106Z,103040.41
2023-01-10T12:12:58.867Z,103036.84
2023-01-10T12:14:02.341Z,103040.30
2023-01-10T12:15:25.405Z,103030.57
2023-01-10T12:16:30.600Z,103033.16
2023-01-10T12:17:37.691Z,103034.94
2023-01-10T12:18:40.655Z,103039.36
2023-01-10T12:19:43.728Z,103042.92
2023-01-10T12:20:52.147Z,103037.66
2023-01-10T12:22:01.549Z,103043.86
2023-01-10T12:23:07.866Z,103042.98
2023-01-10T12:24:17.408Z,103045.70
2023-01-10T12:25:23.922Z,103043.09
2023-01-10T12:26:30.852Z,103046.68
2023-01-10T12:27:33.917Z,103045.00
2023-01-10T12:28:37.214Z,103042.38
2023-01-10T12:29:49.688Z,103044.22
2023-01-10T12:30:55.210Z,103042.48
2023-01-10T12:32:00.465Z,103040.77
2023-01-10T12:33:13.120Z,103050.50
2023-01-10T12:34:22.313Z,103054.89
2023-01-10T12:35:40.821Z,103046.06
2023-01-10T12:36:56.724Z,103051.34
2023-01-10T12:38:09.467Z,103046.91
2023-01-10T12:39:16.103Z,103054.86
2023-01-10T12:40:34.608Z,103056.67
2023-01-10T12:42:17.792Z,103055.86
2023-01-10T12:43:54.386Z,103047.94
2023-01-10T12:45:12.823Z,103049.84
2023-01-10T12:47:00.438Z,103051.81
2023-01-10T12:48:13.166Z,103045.80
2023-01-10T12:50:36.330Z,103056.47